Impacts TAF Board
For situational awareness. Not to be used for flight planning purposes.
IDs:

KDCA - Washington/National, VA, US

Issued at 2254 UTC 26 Feb 2020
Updated at 2322 UTC 26 Feb 2020
Potential Impact None Slight Moderate High
Time2309Z 27/00Z 27/01Z 27/02Z 27/03Z 27/04Z 27/05Z 27/06Z 27/07Z 27/08Z 27/09Z 27/10Z 27/11Z 27/12Z>>
Type OBS PRVL PRVL PRVL PRVL PRVL PRVL PRVL PRVL PRVL PRVL PRVL PRVL PRVL
VIS 2.5 2 5 5 5 3 5 5 5 >6 >6 >6 >6 >6
CIG 5 8 5 5 5 10 20 20 20 100 100 -- -- --
Cover OVC OVC OVC OVC OVC OVC OVC OVC OVC BKN BKN SCT SCT SCT
FltCat IFR IFR IFR IFR IFR MVFR MVFR MVFR MVFR VFR VFR VFR VFR VFR
WX -DZ BR BR -SHRA BR -SHRA BR -SHRA BR SHRA -SHRA -SHRA -SHRA -- -- -- -- --
WDir 130 110 130 130 130 180 250 250 250 280 280 280 280 280
WSpd 5 5 8 8 8 11 12 12 12 14 14 15 15 15
WGst -- -- -- -- -- 18 23 23 23 23 23 25 25 25
Raw TAF
KDCA 262254Z 2623/2724 11005KT 2SM BR OVC008
  FM270100 13008KT 5SM -SHRA BR OVC005
  FM270400 18011G18KT 3SM SHRA OVC010
  FM270500 25012G23KT 5SM -SHRA OVC020
  FM270800 28014G23KT P6SM BKN100
  FM271000 28015G25KT P6SM SCT150
  FM271400 28020G35KT P6SM FEW200


Raw METAR
KDCA 262309Z 13005KT 2 1/2SM -DZ BR OVC005 10/09 A2973 RMK AO2 DZB04 P0000 T01000094
KDCA 262304Z 12007KT 3SM -DZ BR OVC005 10/09 A2974 RMK AO2 DZB04 P0000 T01000094
KDCA 262302Z 12007KT 3SM BR OVC005 10/09 A2974 RMK AO2 T01000094
KDCA 262252Z 11006KT 2SM BR OVC005 10/09 A2974 RMK AO2 SLP070 T01000094
KDCA 262247Z 15004KT 2 1/2SM -RA BR OVC006 10/09 A2972
KDCA 262240Z 10007KT 1 3/4SM BR OVC005 10/09 A2974 RMK AO2 T01000094
KDCA 262206Z 12009KT 6SM BR OVC006 10/09 A2976 RMK AO2 T01000094
KDCA 262152Z 11010KT 8SM OVC008 11/09 A2976 RMK AO2 SLP078 T01060089
KDCA 262052Z 11007KT 10SM OVC009 11/09 A2978 RMK AO2 SLP084 T01060089 56027
KDCA 262044Z 11009KT 10SM OVC009 11/09 A2978 RMK AO2 T01060089

METAR Board
Radar Display
Forecast Discussion
For situational awareness. Not to be used for flight planning purposes.